Track Цветкова Олеся

Time Latitude Longitude Accuracy (66% radius in meters) Altitude (meters) Speed (km/hour) Bearing (degrees) Battery (%) GPS flag
10:49:37 59.739838 30.387576 13 68 0 0 86 1 delete
10:49:26 59.739838 30.387577 12 67 0 0 86 1 delete
10:49:15 59.739838 30.387577 11 67 0 0 86 1 delete
10:49:04 59.739838 30.387577 12 67 0 0 86 1 delete
10:48:51 59.739839 30.387581 12 67 0 0 86 1 delete
10:48:40 59.739839 30.387581 13 67 0 0 86 1 delete
10:48:30 59.739839 30.387585 12 67 0 0 86 1 delete
10:48:18 59.739842 30.387605 11 67 0 0 86 1 delete
10:48:08 59.739817 30.387603 11 67 0 0 86 1 delete
10:47:57 59.739804 30.387598 13 67 0.25 314.10000610352 86 1 delete
10:47:54 59.739805 30.387608 12 65 1.25 210.10000610352 86 1 delete
10:47:51 59.739897 30.387684 13 66 1.5 239.89999389648 86 1 delete
10:47:48 59.739983 30.387843 13 63 0.5 203.30000305176 86 1 delete
10:47:46 59.740048 30.387905 10 61 0.5 203.30000305176 86 1 delete
10:47:36 59.740081 30.387927 25 64 0 0 86 1 delete
10:47:25 59.740087 30.387932 8 64 0 0 86 1 delete
10:47:24 59.740091 30.387937 8 64 0 0 86 1 delete
10:47:19 59.740172 30.388035 10 59 0 0 86 1 delete
10:47:13 59.740279 30.388018 10 58 0 0 86 1 delete
10:47:01 59.740353 30.387872 24 63 0 0 86 1 delete
11:46:51 59.740366 30.387946 4 61 1 171.39999389648 86 0 delete
11:46:40 59.740366 30.387946 4 61 1 171.39999389648 86 0 delete
10:46:25 59.740359 30.387873 8 64 0 0 86 1 delete
10:46:17 59.740366 30.387946 4 61 1 171.39999389648 86 1 delete
10:46:14 59.740407 30.387958 4 60 1.25 176.39999389648 86 1 delete
10:46:10 59.740462 30.387997 3 56 1.25 174.60000610352 86 1 delete
10:46:04 59.740542 30.388118 5 51 1 187.19999694824 86 1 delete
10:46:03 59.740554 30.388141 5 50 1 186.30000305176 86 1 delete
10:45:57 59.740585 30.388292 4 44 1.25 265.70001220703 86 1 delete
10:45:52 59.740592 30.388417 5 44 0.75 268.60000610352 86 1 delete
10:45:48 59.740598 30.388485 5 45 0.75 268.60000610352 86 1 delete
10:45:41 59.740610 30.388622 4 46 0.5 268.60000610352 86 1 delete
10:45:38 59.740613 30.388666 4 48 0.5 268.60000610352 86 1 delete
10:45:31 59.740618 30.388782 3 52 0.75 268.60000610352 86 1 delete
10:45:28 59.740621 30.388852 3 53 1 277.89999389648 86 1 delete
10:45:22 59.740623 30.389035 4 53 1 280.60000610352 86 1 delete
10:45:20 59.740624 30.389106 4 52 1 271.20001220703 86 1 delete
10:45:16 59.740630 30.389233 4 50 1 261.89999389648 86 1 delete
10:45:10 59.740636 30.389432 4 50 0.75 261.5 86 1 delete
10:45:08 59.740633 30.389481 4 50 0.5 261.5 86 1 delete
10:45:00 59.740638 30.389625 4 53 1 261.5 86 1 delete
10:44:57 59.740649 30.389714 4 54 1 268.79998779297 86 1 delete
10:44:54 59.740652 30.389806 4 52 1 273 86 1 delete
10:44:48 59.740650 30.389989 4 51 1 274.70001220703 86 1 delete
10:44:46 59.740650 30.390050 4 50 1 268.79998779297 86 1 delete
10:44:41 59.740646 30.390190 5 50 1 276.60000610352 86 1 delete
10:44:35 59.740652 30.390381 5 48 1 265.39999389648 86 1 delete
10:44:28 59.740669 30.390579 5 44 1 266.39999389648 86 1 delete
10:44:24 59.740676 30.390693 6 43 1 262.79998779297 86 1 delete
10:44:21 59.740685 30.390770 5 42 1 270.79998779297 86 1 delete